sensor_id;sensor_type;location;lat;lon;timestamp;pressure;altitude;pressure_sealevel;temperature;humidity
22206;BME280;11272;50.104;8.754;2022-10-31T00:02:19;101045.59;;;12.93;83.83
22206;BME280;11272;50.104;8.754;2022-10-31T00:04:44;101040.22;;;12.96;83.71
22206;BME280;11272;50.104;8.754;2022-10-31T00:07:09;101042.81;;;12.99;83.63
22206;BME280;11272;50.104;8.754;2022-10-31T00:09:35;101039.22;;;13.00;83.55
22206;BME280;11272;50.104;8.754;2022-10-31T00:12:00;101040.13;;;13.00;83.48
22206;BME280;11272;50.104;8.754;2022-10-31T00:14:26;101041.91;;;13.00;83.52
22206;BME280;11272;50.104;8.754;2022-10-31T00:16:51;101035.75;;;12.98;83.56
22206;BME280;11272;50.104;8.754;2022-10-31T00:19:17;101037.59;;;12.93;83.31
22206;BME280;11272;50.104;8.754;2022-10-31T00:21:42;101044.81;;;12.88;83.58
22206;BME280;11272;50.104;8.754;2022-10-31T00:24:07;101044.91;;;12.85;83.19
22206;BME280;11272;50.104;8.754;2022-10-31T00:26:33;101044.13;;;12.78;83.57
22206;BME280;11272;50.104;8.754;2022-10-31T00:28:59;101038.88;;;12.75;83.58
22206;BME280;11272;50.104;8.754;2022-10-31T00:31:26;101045.13;;;12.73;83.56
22206;BME280;11272;50.104;8.754;2022-10-31T00:33:51;101046.13;;;12.69;83.69
22206;BME280;11272;50.104;8.754;2022-10-31T00:36:18;101054.22;;;12.64;83.79
22206;BME280;11272;50.104;8.754;2022-10-31T00:38:45;101049.84;;;12.60;84.10
22206;BME280;11272;50.104;8.754;2022-10-31T00:41:11;101043.66;;;12.59;83.97
22206;BME280;11272;50.104;8.754;2022-10-31T00:43:40;101058.78;;;12.57;83.96
22206;BME280;11272;50.104;8.754;2022-10-31T00:46:05;101057.88;;;12.58;84.17
22206;BME280;11272;50.104;8.754;2022-10-31T00:48:31;101061.44;;;12.57;84.09
22206;BME280;11272;50.104;8.754;2022-10-31T00:50:56;101054.41;;;12.55;83.90
22206;BME280;11272;50.104;8.754;2022-10-31T00:53:22;101061.50;;;12.54;83.97
22206;BME280;11272;50.104;8.754;2022-10-31T00:55:48;101061.50;;;12.54;84.11
22206;BME280;11272;50.104;8.754;2022-10-31T00:58:14;101058.88;;;12.51;84.09
22206;BME280;11272;50.104;8.754;2022-10-31T01:00:39;101063.41;;;12.48;84.18
22206;BME280;11272;50.104;8.754;2022-10-31T01:03:06;101059.06;;;12.44;84.17
22206;BME280;11272;50.104;8.754;2022-10-31T01:05:32;101060.84;;;12.43;84.05
22206;BME280;11272;50.104;8.754;2022-10-31T01:07:58;101065.31;;;12.41;84.10
22206;BME280;11272;50.104;8.754;2022-10-31T01:10:25;101067.09;;;12.41;84.62
22206;BME280;11272;50.104;8.754;2022-10-31T01:12:51;101062.63;;;12.41;84.67
22206;BME280;11272;50.104;8.754;2022-10-31T01:15:20;101061.72;;;12.42;84.42
22206;BME280;11272;50.104;8.754;2022-10-31T01:17:46;101057.28;;;12.43;84.63
22206;BME280;11272;50.104;8.754;2022-10-31T01:20:13;101062.59;;;12.44;84.60
22206;BME280;11272;50.104;8.754;2022-10-31T01:22:39;101064.31;;;12.47;84.61
22206;BME280;11272;50.104;8.754;2022-10-31T01:25:05;101063.41;;;12.48;84.63
22206;BME280;11272;50.104;8.754;2022-10-31T01:27:32;101067.78;;;12.50;84.78
22206;BME280;11272;50.104;8.754;2022-10-31T01:29:57;101062.50;;;12.49;84.81
22206;BME280;11272;50.104;8.754;2022-10-31T01:32:24;101065.19;;;12.47;84.69
22206;BME280;11272;50.104;8.754;2022-10-31T01:34:50;101072.28;;;12.48;84.80
22206;BME280;11272;50.104;8.754;2022-10-31T01:37:15;101063.41;;;12.48;85.05
22206;BME280;11272;50.104;8.754;2022-10-31T01:39:41;101065.19;;;12.47;84.96
22206;BME280;11272;50.104;8.754;2022-10-31T01:42:16;101057.22;;;12.46;85.20
22206;BME280;11272;50.104;8.754;2022-10-31T01:47:15;101062.50;;;12.49;85.57
22206;BME280;11272;50.104;8.754;2022-10-31T01:55:00;101052.66;;;12.52;85.81
22206;BME280;11272;50.104;8.754;2022-10-31T01:57:27;101052.66;;;12.52;85.51
22206;BME280;11272;50.104;8.754;2022-10-31T01:59:58;101040.31;;;12.48;85.78
22206;BME280;11272;50.104;8.754;2022-10-31T02:02:25;101050.13;;;12.45;85.80
22206;BME280;11272;50.104;8.754;2022-10-31T02:04:51;101047.50;;;12.43;85.99
22206;BME280;11272;50.104;8.754;2022-10-31T02:07:25;101050.19;;;12.42;86.09
22206;BME280;11272;50.104;8.754;2022-10-31T02:09:55;101049.31;;;12.41;86.14
22206;BME280;11272;50.104;8.754;2022-10-31T02:12:22;101049.31;;;12.43;86.03
22206;BME280;11272;50.104;8.754;2022-10-31T02:14:48;101051.97;;;12.43;85.90
22206;BME280;11272;50.104;8.754;2022-10-31T02:17:13;101042.22;;;12.40;85.81
22206;BME280;11272;50.104;8.754;2022-10-31T02:19:50;101036.13;;;12.35;85.84
22206;BME280;11272;50.104;8.754;2022-10-31T02:22:50;101038.88;;;12.29;85.68
22206;BME280;11272;50.104;8.754;2022-10-31T02:25:29;101042.47;;;12.28;85.80
22206;BME280;11272;50.104;8.754;2022-10-31T02:33:43;101050.66;;;12.17;85.74
22206;BME280;11272;50.104;8.754;2022-10-31T02:38:46;101044.47;;;12.15;86.02
22206;BME280;11272;50.104;8.754;2022-10-31T02:41:26;101042.72;;;12.13;86.09
22206;BME280;11272;50.104;8.754;2022-10-31T02:46:57;101045.41;;;12.13;86.02
22206;BME280;11272;50.104;8.754;2022-10-31T02:49:55;101044.56;;;12.12;86.19
22206;BME280;11272;50.104;8.754;2022-10-31T02:52:31;101048.06;;;12.13;85.97
22206;BME280;11272;50.104;8.754;2022-10-31T02:55:39;101048.13;;;12.11;85.91
22206;BME280;11272;50.104;8.754;2022-10-31T02:58:02;101047.25;;;12.08;86.04
22206;BME280;11272;50.104;8.754;2022-10-31T03:00:38;101046.38;;;12.07;86.07
22206;BME280;11272;50.104;8.754;2022-10-31T03:04:07;101039.34;;;12.05;86.06
22206;BME280;11272;50.104;8.754;2022-10-31T03:08:57;101042.06;;;12.02;86.30
22206;BME280;11272;50.104;8.754;2022-10-31T03:11:32;101042.97;;;12.01;86.25
22206;BME280;11272;50.104;8.754;2022-10-31T03:14:21;101044.75;;;12.02;86.25
22206;BME280;11272;50.104;8.754;2022-10-31T03:16:59;101042.03;;;12.03;86.33
22206;BME280;11272;50.104;8.754;2022-10-31T03:19:40;101043.78;;;12.06;86.32
22206;BME280;11272;50.104;8.754;2022-10-31T03:22:21;101044.59;;;12.09;86.21
22206;BME280;11272;50.104;8.754;2022-10-31T03:24:48;101044.47;;;12.15;86.11
22206;BME280;11272;50.104;8.754;2022-10-31T03:27:16;101048.00;;;12.17;86.28
22206;BME280;11272;50.104;8.754;2022-10-31T03:29:44;101052.38;;;12.21;86.45
22206;BME280;11272;50.104;8.754;2022-10-31T03:32:14;101050.59;;;12.22;86.30
22206;BME280;11272;50.104;8.754;2022-10-31T03:34:44;101049.59;;;12.26;86.20
22206;BME280;11272;50.104;8.754;2022-10-31T03:37:13;101048.69;;;12.29;86.32
22206;BME280;11272;50.104;8.754;2022-10-31T03:39:41;101039.75;;;12.31;86.23
22206;BME280;11272;50.104;8.754;2022-10-31T03:42:14;101042.34;;;12.34;86.29
22206;BME280;11272;50.104;8.754;2022-10-31T03:44:44;101033.44;;;12.37;86.24
22206;BME280;11272;50.104;8.754;2022-10-31T03:47:11;101042.28;;;12.39;86.42
22206;BME280;11272;50.104;8.754;2022-10-31T03:49:38;101037.78;;;12.41;86.44
22206;BME280;11272;50.104;8.754;2022-10-31T03:52:23;101035.09;;;12.42;86.12
22206;BME280;11272;50.104;8.754;2022-10-31T03:55:01;101031.53;;;12.43;86.59
22206;BME280;11272;50.104;8.754;2022-10-31T03:57:38;101036.78;;;12.46;86.48
22206;BME280;11272;50.104;8.754;2022-10-31T04:00:08;101037.66;;;12.48;86.43
22206;BME280;11272;50.104;8.754;2022-10-31T04:05:17;101033.16;;;12.50;86.45
22206;BME280;11272;50.104;8.754;2022-10-31T04:07:45;101033.16;;;12.50;86.28
22206;BME280;11272;50.104;8.754;2022-10-31T04:10:13;101036.75;;;12.49;86.30
22206;BME280;11272;50.104;8.754;2022-10-31T04:12:44;101034.09;;;12.48;86.20
22206;BME280;11272;50.104;8.754;2022-10-31T04:15:20;101026.13;;;12.46;86.25
22206;BME280;11272;50.104;8.754;2022-10-31T04:17:50;101027.97;;;12.44;86.36
22206;BME280;11272;50.104;8.754;2022-10-31T04:20:35;101027.09;;;12.44;86.22
22206;BME280;11272;50.104;8.754;2022-10-31T04:23:03;101025.31;;;12.43;86.10
22206;BME280;11272;50.104;8.754;2022-10-31T04:25:29;101020.91;;;12.42;85.84
22206;BME280;11272;50.104;8.754;2022-10-31T04:27:56;101027.13;;;12.41;86.20
22206;BME280;11272;50.104;8.754;2022-10-31T04:30:22;101029.84;;;12.39;86.17
22206;BME280;11272;50.104;8.754;2022-10-31T04:32:48;101033.41;;;12.38;86.03
22206;BME280;11272;50.104;8.754;2022-10-31T04:35:13;101033.41;;;12.38;85.95
22206;BME280;11272;50.104;8.754;2022-10-31T04:37:40;101032.53;;;12.38;85.93
22206;BME280;11272;50.104;8.754;2022-10-31T04:40:05;101036.16;;;12.34;85.97
22206;BME280;11272;50.104;8.754;2022-10-31T04:42:40;101041.53;;;12.31;85.93
22206;BME280;11272;50.104;8.754;2022-10-31T04:45:06;101038.88;;;12.29;85.77
22206;BME280;11272;50.104;8.754;2022-10-31T04:47:33;101040.66;;;12.30;85.98
22206;BME280;11272;50.104;8.754;2022-10-31T04:50:00;101044.19;;;12.31;85.90
22206;BME280;11272;50.104;8.754;2022-10-31T04:52:25;101044.22;;;12.29;85.93
22206;BME280;11272;50.104;8.754;2022-10-31T04:54:51;101048.69;;;12.29;85.86
22206;BME280;11272;50.104;8.754;2022-10-31T04:57:47;101058.47;;;12.27;85.73
22206;BME280;11272;50.104;8.754;2022-10-31T05:00:15;101046.06;;;12.27;85.74
22206;BME280;11272;50.104;8.754;2022-10-31T05:02:49;101056.69;;;12.27;85.98
22206;BME280;11272;50.104;8.754;2022-10-31T05:21:26;101035.38;;;12.29;85.86
22206;BME280;11272;50.104;8.754;2022-10-31T05:23:57;101032.66;;;12.30;85.92
22206;BME280;11272;50.104;8.754;2022-10-31T05:26:23;101035.31;;;12.30;85.84
22206;BME280;11272;50.104;8.754;2022-10-31T05:28:50;101030.00;;;12.30;85.67
22206;BME280;11272;50.104;8.754;2022-10-31T05:31:15;101022.06;;;12.29;85.51
22206;BME280;11272;50.104;8.754;2022-10-31T05:33:41;101023.84;;;12.27;85.48
22206;BME280;11272;50.104;8.754;2022-10-31T05:36:09;101026.53;;;12.25;85.49
22206;BME280;11272;50.104;8.754;2022-10-31T05:39:01;101022.19;;;12.21;85.50
22206;BME280;11272;50.104;8.754;2022-10-31T05:41:32;101029.31;;;12.20;85.57
22206;BME280;11272;50.104;8.754;2022-10-31T05:44:10;101028.50;;;12.17;85.50
22206;BME280;11272;50.104;8.754;2022-10-31T05:46:51;101029.44;;;12.13;85.75
22206;BME280;11272;50.104;8.754;2022-10-31T05:49:37;101027.69;;;12.12;85.65
22206;BME280;11272;50.104;8.754;2022-10-31T05:52:21;101026.84;;;12.10;85.67
22206;BME280;11272;50.104;8.754;2022-10-31T05:54:57;101031.28;;;12.08;85.86
22206;BME280;11272;50.104;8.754;2022-10-31T05:57:22;101033.06;;;12.09;85.81
22206;BME280;11272;50.104;8.754;2022-10-31T05:59:48;101038.38;;;12.09;86.02
22206;BME280;11272;50.104;8.754;2022-10-31T06:02:14;101033.06;;;12.09;86.12
22206;BME280;11272;50.104;8.754;2022-10-31T06:04:58;101039.25;;;12.09;85.81
22206;BME280;11272;50.104;8.754;2022-10-31T06:07:25;101027.72;;;12.09;86.02
22206;BME280;11272;50.104;8.754;2022-10-31T06:09:51;101028.63;;;12.08;86.06
22206;BME280;11272;50.104;8.754;2022-10-31T06:12:19;101030.41;;;12.09;86.17
22206;BME280;11272;50.104;8.754;2022-10-31T06:15:08;101020.66;;;12.08;86.05
22206;BME280;11272;50.104;8.754;2022-10-31T06:17:34;101019.75;;;12.07;86.11
22206;BME280;11272;50.104;8.754;2022-10-31T06:20:45;101024.28;;;12.04;86.28
22206;BME280;11272;50.104;8.754;2022-10-31T06:23:11;101021.63;;;12.04;86.05
22206;BME280;11272;50.104;8.754;2022-10-31T06:28:08;101020.66;;;12.08;86.50
22206;BME280;11272;50.104;8.754;2022-10-31T06:30:52;101017.94;;;12.11;86.55
22206;BME280;11272;50.104;8.754;2022-10-31T06:33:19;101017.00;;;12.13;86.46
22206;BME280;11272;50.104;8.754;2022-10-31T06:35:56;101025.81;;;12.17;86.40
22206;BME280;11272;50.104;8.754;2022-10-31T06:38:25;101031.97;;;12.20;86.66
22206;BME280;11272;50.104;8.754;2022-10-31T06:46:16;101039.69;;;12.34;86.60
22206;BME280;11272;50.104;8.754;2022-10-31T06:54:27;101048.28;;;12.50;86.67
22206;BME280;11272;50.104;8.754;2022-10-31T06:56:59;101054.31;;;12.59;86.68
22206;BME280;11272;50.104;8.754;2022-10-31T06:59:26;101048.81;;;12.67;86.88
22206;BME280;11272;50.104;8.754;2022-10-31T07:02:12;101045.09;;;12.76;86.75
22206;BME280;11272;50.104;8.754;2022-10-31T07:07:22;101047.41;;;12.92;86.57
22206;BME280;11272;50.104;8.754;2022-10-31T07:09:49;101052.59;;;12.98;86.58
22206;BME280;11272;50.104;8.754;2022-10-31T07:12:17;101051.59;;;13.04;86.62
22206;BME280;11272;50.104;8.754;2022-10-31T07:14:51;101051.44;;;13.10;86.06
22206;BME280;11272;50.104;8.754;2022-10-31T07:17:18;101050.47;;;13.16;86.21
22206;BME280;11272;50.104;8.754;2022-10-31T07:19:45;101050.44;;;13.19;85.71
22206;BME280;11272;50.104;8.754;2022-10-31T07:22:12;101059.22;;;13.22;85.49
22206;BME280;11272;50.104;8.754;2022-10-31T07:24:39;101045.81;;;13.25;85.50
22206;BME280;11272;50.104;8.754;2022-10-31T07:27:17;101041.31;;;13.29;85.18
22206;BME280;11272;50.104;8.754;2022-10-31T07:29:44;101043.88;;;13.32;84.93
22206;BME280;11272;50.104;8.754;2022-10-31T07:32:10;101042.06;;;13.35;84.85
22206;BME280;11272;50.104;8.754;2022-10-31T07:34:42;101046.38;;;13.39;85.03
22206;BME280;11272;50.104;8.754;2022-10-31T07:37:15;101048.06;;;13.43;85.03
22206;BME280;11272;50.104;8.754;2022-10-31T07:39:41;101061.28;;;13.48;84.64
22206;BME280;11272;50.104;8.754;2022-10-31T07:42:06;101054.09;;;13.52;84.66
22206;BME280;11272;50.104;8.754;2022-10-31T07:44:33;101063.72;;;13.59;84.40
22206;BME280;11272;50.104;8.754;2022-10-31T07:47:23;101056.44;;;13.65;84.39
22206;BME280;11272;50.104;8.754;2022-10-31T07:50:14;101062.47;;;13.73;84.23
22206;BME280;11272;50.104;8.754;2022-10-31T07:57:00;101050.50;;;13.89;83.92
22206;BME280;11272;50.104;8.754;2022-10-31T07:59:25;101055.47;;;14.05;83.93
22206;BME280;11272;50.104;8.754;2022-10-31T08:01:53;101059.13;;;14.34;84.09
22206;BME280;11272;50.104;8.754;2022-10-31T08:04:48;101050.22;;;14.97;84.40
22206;BME280;11272;50.104;8.754;2022-10-31T08:07:45;101044.69;;;15.62;84.16
22206;BME280;11272;50.104;8.754;2022-10-31T08:10:17;101048.06;;;15.95;82.83
22206;BME280;11272;50.104;8.754;2022-10-31T08:12:42;101048.84;;;16.50;82.24
22206;BME280;11272;50.104;8.754;2022-10-31T08:15:08;101049.81;;;17.20;81.10
22206;BME280;11272;50.104;8.754;2022-10-31T08:17:36;101037.00;;;17.72;79.49
22206;BME280;11272;50.104;8.754;2022-10-31T08:20:03;101034.25;;;18.15;77.78
22206;BME280;11272;50.104;8.754;2022-10-31T08:22:38;101033.44;;;18.33;75.59
22206;BME280;11272;50.104;8.754;2022-10-31T08:25:04;101031.47;;;18.59;74.39
22206;BME280;11272;50.104;8.754;2022-10-31T08:27:30;101028.97;;;18.74;72.63
22206;BME280;11272;50.104;8.754;2022-10-31T08:30:02;101030.38;;;18.63;70.84
22206;BME280;11272;50.104;8.754;2022-10-31T08:32:30;101031.25;;;18.43;70.36
22206;BME280;11272;50.104;8.754;2022-10-31T08:35:10;101026.66;;;18.25;69.75
22206;BME280;11272;50.104;8.754;2022-10-31T08:37:58;101025.44;;;18.12;69.40
22206;BME280;11272;50.104;8.754;2022-10-31T08:40:27;101021.53;;;17.98;68.77
22206;BME280;11272;50.104;8.754;2022-10-31T08:43:00;101023.06;;;17.84;68.58
22206;BME280;11272;50.104;8.754;2022-10-31T08:45:26;101027.38;;;17.66;68.58
22206;BME280;11272;50.104;8.754;2022-10-31T08:47:56;101018.22;;;17.48;68.45
22206;BME280;11272;50.104;8.754;2022-10-31T08:50:23;101020.59;;;17.34;68.46
22206;BME280;11272;50.104;8.754;2022-10-31T09:00:36;101022.59;;;17.06;69.09
22206;BME280;11272;50.104;8.754;2022-10-31T09:10:33;101002.56;;;16.93;69.50
22206;BME280;11272;50.104;8.754;2022-10-31T09:13:05;101007.03;;;16.92;69.29
22206;BME280;11272;50.104;8.754;2022-10-31T09:15:50;101013.38;;;16.90;69.29
22206;BME280;11272;50.104;8.754;2022-10-31T09:18:26;101019.63;;;16.90;69.47
22206;BME280;11272;50.104;8.754;2022-10-31T09:21:01;101014.03;;;16.96;69.50
22206;BME280;11272;50.104;8.754;2022-10-31T09:23:29;101006.41;;;17.09;69.49
22206;BME280;11272;50.104;8.754;2022-10-31T09:25:55;101007.47;;;17.26;69.26
22206;BME280;11272;50.104;8.754;2022-10-31T09:28:42;100988.44;;;17.54;69.40
22206;BME280;11272;50.104;8.754;2022-10-31T09:35:13;100994.81;;;18.56;68.03
22206;BME280;11272;50.104;8.754;2022-10-31T09:37:39;100981.69;;;18.69;67.55
22206;BME280;11272;50.104;8.754;2022-10-31T09:40:04;100982.06;;;18.80;66.63
22206;BME280;11272;50.104;8.754;2022-10-31T09:51:00;100973.09;;;19.71;65.15
22206;BME280;11272;50.104;8.754;2022-10-31T09:56:25;100972.78;;;20.46;63.36
22206;BME280;11272;50.104;8.754;2022-10-31T09:58:58;100974.88;;;20.74;62.59
22206;BME280;11272;50.104;8.754;2022-10-31T10:01:53;100974.16;;;21.04;61.79
22206;BME280;11272;50.104;8.754;2022-10-31T10:04:57;100966.50;;;21.27;61.31
22206;BME280;11272;50.104;8.754;2022-10-31T10:07:58;100959.38;;;21.42;60.61
22206;BME280;11272;50.104;8.754;2022-10-31T10:10:54;100958.97;;;21.64;59.76
22206;BME280;11272;50.104;8.754;2022-10-31T10:22:26;100945.91;;;22.02;57.52
22206;BME280;11272;50.104;8.754;2022-10-31T10:25:12;100961.16;;;22.03;56.86
22206;BME280;11272;50.104;8.754;2022-10-31T10:28:02;100941.47;;;22.01;57.06
22206;BME280;11272;50.104;8.754;2022-10-31T10:31:30;100944.94;;;22.03;56.77
22206;BME280;11272;50.104;8.754;2022-10-31T10:34:02;100954.22;;;21.99;56.67
22206;BME280;11272;50.104;8.754;2022-10-31T10:39:18;100940.41;;;21.88;56.39
22206;BME280;11272;50.104;8.754;2022-10-31T10:41:50;100940.78;;;21.81;56.35
22206;BME280;11272;50.104;8.754;2022-10-31T10:44:39;100932.75;;;21.80;56.40
22206;BME280;11272;50.104;8.754;2022-10-31T10:47:37;100935.28;;;21.83;56.37
22206;BME280;11272;50.104;8.754;2022-10-31T10:58:07;100914.72;;;22.24;55.43
22206;BME280;11272;50.104;8.754;2022-10-31T11:00:41;100921.00;;;22.39;55.26
22206;BME280;11272;50.104;8.754;2022-10-31T11:03:08;100903.81;;;22.54;55.07
22206;BME280;11272;50.104;8.754;2022-10-31T11:05:44;100906.53;;;22.68;54.47
22206;BME280;11272;50.104;8.754;2022-10-31T11:08:24;100896.25;;;22.88;54.21
22206;BME280;11272;50.104;8.754;2022-10-31T11:11:28;100885.44;;;23.15;53.74
22206;BME280;11272;50.104;8.754;2022-10-31T11:14:03;100884.88;;;23.36;53.12
22206;BME280;11272;50.104;8.754;2022-10-31T11:16:36;100880.28;;;23.51;52.89
22206;BME280;11272;50.104;8.754;2022-10-31T11:19:25;100873.19;;;23.63;52.89
22206;BME280;11272;50.104;8.754;2022-10-31T11:21:52;100872.44;;;23.73;52.45
22206;BME280;11272;50.104;8.754;2022-10-31T11:24:23;100870.94;;;23.82;51.86
22206;BME280;11272;50.104;8.754;2022-10-31T11:26:51;100868.00;;;23.85;51.81
22206;BME280;11272;50.104;8.754;2022-10-31T11:29:24;100854.13;;;24.02;51.85
22206;BME280;11272;50.104;8.754;2022-10-31T11:31:52;100861.53;;;24.25;51.22
22206;BME280;11272;50.104;8.754;2022-10-31T11:34:31;100859.53;;;24.65;50.52
22206;BME280;11272;50.104;8.754;2022-10-31T11:37:13;100848.34;;;25.06;49.89
22206;BME280;11272;50.104;8.754;2022-10-31T11:39:43;100848.00;;;25.35;49.41
22206;BME280;11272;50.104;8.754;2022-10-31T11:42:20;100843.00;;;25.52;48.92
22206;BME280;11272;50.104;8.754;2022-10-31T11:44:46;100843.75;;;25.54;48.21
22206;BME280;11272;50.104;8.754;2022-10-31T11:47:15;100837.38;;;25.67;48.06
22206;BME280;11272;50.104;8.754;2022-10-31T11:49:44;100838.78;;;25.83;47.61
22206;BME280;11272;50.104;8.754;2022-10-31T11:52:16;100837.34;;;26.02;47.49
22206;BME280;11272;50.104;8.754;2022-10-31T11:54:47;100825.63;;;26.23;46.97
22206;BME280;11272;50.104;8.754;2022-10-31T11:59:58;100813.47;;;26.05;46.34
22206;BME280;11272;50.104;8.754;2022-10-31T12:02:24;100802.53;;;25.72;46.81
22206;BME280;11272;50.104;8.754;2022-10-31T12:05:18;100803.41;;;25.48;47.10
22206;BME280;11272;50.104;8.754;2022-10-31T12:07:45;100798.00;;;25.25;47.42
22206;BME280;11272;50.104;8.754;2022-10-31T12:10:11;100796.59;;;25.08;47.16
22206;BME280;11272;50.104;8.754;2022-10-31T12:12:44;100798.38;;;24.96;47.49
22206;BME280;11272;50.104;8.754;2022-10-31T12:21:14;100791.44;;;24.56;48.69
22206;BME280;11272;50.104;8.754;2022-10-31T12:23:57;100786.66;;;24.47;49.05
22206;BME280;11272;50.104;8.754;2022-10-31T12:30:24;100776.50;;;24.12;49.30
22206;BME280;11272;50.104;8.754;2022-10-31T12:45:57;100772.44;;;23.42;50.94
22206;BME280;11272;50.104;8.754;2022-10-31T12:48:37;100786.53;;;23.34;51.11
22206;BME280;11272;50.104;8.754;2022-10-31T12:51:33;100775.66;;;23.22;51.01
22206;BME280;11272;50.104;8.754;2022-10-31T12:57:33;100762.19;;;23.07;51.50
22206;BME280;11272;50.104;8.754;2022-10-31T13:00:16;100756.09;;;23.04;51.48
22206;BME280;11272;50.104;8.754;2022-10-31T13:02:59;100749.47;;;22.95;51.55
22206;BME280;11272;50.104;8.754;2022-10-31T13:05:34;100739.28;;;22.86;51.62
22206;BME280;11272;50.104;8.754;2022-10-31T13:08:15;100728.94;;;22.79;51.74
22206;BME280;11272;50.104;8.754;2022-10-31T13:11:12;100716.09;;;22.68;51.86
22206;BME280;11272;50.104;8.754;2022-10-31T13:13:51;100709.56;;;22.58;51.99
22206;BME280;11272;50.104;8.754;2022-10-31T13:16:42;100703.75;;;22.50;52.19
22206;BME280;11272;50.104;8.754;2022-10-31T13:22:21;100692.34;;;22.32;52.60
22206;BME280;11272;50.104;8.754;2022-10-31T13:25:02;100687.63;;;22.21;52.87
22206;BME280;11272;50.104;8.754;2022-10-31T13:27:34;100688.31;;;22.11;53.27
22206;BME280;11272;50.104;8.754;2022-10-31T13:30:11;100685.53;;;21.98;53.74
22206;BME280;11272;50.104;8.754;2022-10-31T13:32:48;100679.81;;;21.89;53.81
22206;BME280;11272;50.104;8.754;2022-10-31T13:38:18;100676.38;;;21.72;54.75
22206;BME280;11272;50.104;8.754;2022-10-31T13:46:35;100667.09;;;21.48;55.41
22206;BME280;11272;50.104;8.754;2022-10-31T13:49:01;100674.59;;;21.43;55.51
22206;BME280;11272;50.104;8.754;2022-10-31T13:51:31;100665.25;;;21.34;55.98
22206;BME280;11272;50.104;8.754;2022-10-31T13:54:19;100658.31;;;21.30;56.24
22206;BME280;11272;50.104;8.754;2022-10-31T13:56:48;100655.91;;;21.26;56.45
22206;BME280;11272;50.104;8.754;2022-10-31T13:59:18;100650.88;;;21.20;56.63
22206;BME280;11272;50.104;8.754;2022-10-31T14:01:54;100645.09;;;21.10;56.90
22206;BME280;11272;50.104;8.754;2022-10-31T14:04:27;100647.22;;;21.05;57.15
22206;BME280;11272;50.104;8.754;2022-10-31T14:06:57;100649.63;;;20.95;57.53
22206;BME280;11272;50.104;8.754;2022-10-31T14:09:30;100653.25;;;20.80;57.95
22206;BME280;11272;50.104;8.754;2022-10-31T14:11:59;100655.56;;;20.72;58.49
22206;BME280;11272;50.104;8.754;2022-10-31T14:14:31;100648.59;;;20.68;58.58
22206;BME280;11272;50.104;8.754;2022-10-31T14:16:59;100649.81;;;20.63;58.88
22206;BME280;11272;50.104;8.754;2022-10-31T14:19:25;100635.72;;;20.57;59.06
22206;BME280;11272;50.104;8.754;2022-10-31T14:21:51;100635.13;;;20.52;59.33
22206;BME280;11272;50.104;8.754;2022-10-31T14:27:29;100642.91;;;20.43;59.89
22206;BME280;11272;50.104;8.754;2022-10-31T14:29:49;100641.00;;;20.29;60.10
22206;BME280;11272;50.104;8.754;2022-10-31T14:32:24;100632.47;;;20.21;60.59
22206;BME280;11272;50.104;8.754;2022-10-31T14:34:58;100621.88;;;20.18;60.71
22206;BME280;11272;50.104;8.754;2022-10-31T14:37:52;100616.63;;;20.15;61.13
22206;BME280;11272;50.104;8.754;2022-10-31T14:51:46;100640.63;;;20.19;61.95
22206;BME280;11272;50.104;8.754;2022-10-31T14:54:15;100638.22;;;20.15;62.16
22206;BME280;11272;50.104;8.754;2022-10-31T14:56:50;100645.44;;;20.14;62.55
22206;BME280;11272;50.104;8.754;2022-10-31T14:59:25;100642.56;;;20.17;62.55
22206;BME280;11272;50.104;8.754;2022-10-31T15:01:59;100638.38;;;20.28;62.42
22206;BME280;11272;50.104;8.754;2022-10-31T15:04:30;100626.47;;;20.32;62.26
22206;BME280;11272;50.104;8.754;2022-10-31T15:07:24;100629.00;;;20.35;62.20
22206;BME280;11272;50.104;8.754;2022-10-31T15:12:30;100624.81;;;20.29;62.48
22206;BME280;11272;50.104;8.754;2022-10-31T15:14:57;100620.66;;;20.24;62.17
22206;BME280;11272;50.104;8.754;2022-10-31T15:17:25;100632.31;;;20.08;62.56
22206;BME280;11272;50.104;8.754;2022-10-31T15:19:52;100631.63;;;19.89;63.30
22206;BME280;11272;50.104;8.754;2022-10-31T15:22:20;100631.63;;;19.73;63.29
22206;BME280;11272;50.104;8.754;2022-10-31T15:24:48;100626.03;;;19.61;63.51
22206;BME280;11272;50.104;8.754;2022-10-31T15:27:21;100614.03;;;19.51;63.83
22206;BME280;11272;50.104;8.754;2022-10-31T15:29:55;100611.19;;;19.37;64.05
22206;BME280;11272;50.104;8.754;2022-10-31T15:32:23;100621.94;;;19.21;64.46
22206;BME280;11272;50.104;8.754;2022-10-31T15:34:50;100619.97;;;19.07;64.89
22206;BME280;11272;50.104;8.754;2022-10-31T15:37:22;100612.31;;;19.00;65.35
22206;BME280;11272;50.104;8.754;2022-10-31T15:39:50;100609.94;;;18.93;65.49
22206;BME280;11272;50.104;8.754;2022-10-31T15:42:38;100614.31;;;18.79;66.05
22206;BME280;11272;50.104;8.754;2022-10-31T15:45:16;100636.09;;;18.74;66.23
22206;BME280;11272;50.104;8.754;2022-10-31T15:48:04;100615.75;;;18.69;66.59
22206;BME280;11272;50.104;8.754;2022-10-31T15:50:40;100605.94;;;18.68;66.65
22206;BME280;11272;50.104;8.754;2022-10-31T15:53:24;100603.25;;;18.68;67.24
22206;BME280;11272;50.104;8.754;2022-10-31T15:55:57;100602.63;;;18.63;67.33
22206;BME280;11272;50.104;8.754;2022-10-31T15:58:25;100608.44;;;18.54;67.46
22206;BME280;11272;50.104;8.754;2022-10-31T16:01:03;100606.13;;;18.46;67.89
22206;BME280;11272;50.104;8.754;2022-10-31T16:06:43;100610.00;;;18.40;68.17
22206;BME280;11272;50.104;8.754;2022-10-31T16:09:23;100598.84;;;18.31;68.80
22206;BME280;11272;50.104;8.754;2022-10-31T16:11:51;100596.41;;;18.26;69.09
22206;BME280;11272;50.104;8.754;2022-10-31T16:14:19;100593.72;;;18.26;69.42